sensor_id;sensor_type;location;lat;lon;timestamp;P1;durP1;ratioP1;P2;durP2;ratioP2
73850;SDS011;62190;51.548;5.688;2023-04-12T00:00:04;4.23;;;1.40;;
73850;SDS011;62190;51.548;5.688;2023-04-12T00:02:35;3.50;;;1.27;;
73850;SDS011;62190;51.548;5.688;2023-04-12T00:05:02;9.03;;;1.55;;
73850;SDS011;62190;51.548;5.688;2023-04-12T00:07:31;3.83;;;1.25;;
73850;SDS011;62190;51.548;5.688;2023-04-12T00:10:00;6.33;;;1.52;;
73850;SDS011;62190;51.548;5.688;2023-04-12T00:12:27;7.10;;;1.50;;
73850;SDS011;62190;51.548;5.688;2023-04-12T00:14:56;4.03;;;0.90;;
73850;SDS011;62190;51.548;5.688;2023-04-12T00:17:23;4.50;;;1.50;;
73850;SDS011;62190;51.548;5.688;2023-04-12T00:19:52;3.55;;;1.00;;
73850;SDS011;62190;51.548;5.688;2023-04-12T00:22:24;6.75;;;1.20;;
73850;SDS011;62190;51.548;5.688;2023-04-12T00:24:55;6.37;;;1.52;;
73850;SDS011;62190;51.548;5.688;2023-04-12T00:27:22;9.08;;;1.75;;
73850;SDS011;62190;51.548;5.688;2023-04-12T00:29:52;7.42;;;1.80;;
73850;SDS011;62190;51.548;5.688;2023-04-12T00:32:19;8.58;;;2.10;;
73850;SDS011;62190;51.548;5.688;2023-04-12T00:34:48;5.67;;;1.20;;
73850;SDS011;62190;51.548;5.688;2023-04-12T00:37:17;6.05;;;1.77;;
73850;SDS011;62190;51.548;5.688;2023-04-12T00:39:45;5.00;;;1.35;;
73850;SDS011;62190;51.548;5.688;2023-04-12T00:42:16;4.85;;;1.27;;
73850;SDS011;62190;51.548;5.688;2023-04-12T00:44:46;6.90;;;1.50;;
73850;SDS011;62190;51.548;5.688;2023-04-12T00:47:13;8.45;;;1.57;;
73850;SDS011;62190;51.548;5.688;2023-04-12T00:49:43;5.00;;;1.55;;
73850;SDS011;62190;51.548;5.688;2023-04-12T00:52:12;6.95;;;1.55;;
73850;SDS011;62190;51.548;5.688;2023-04-12T00:54:40;6.12;;;1.80;;
73850;SDS011;62190;51.548;5.688;2023-04-12T00:57:08;6.75;;;1.37;;
73850;SDS011;62190;51.548;5.688;2023-04-12T00:59:38;8.15;;;1.67;;
73850;SDS011;62190;51.548;5.688;2023-04-12T01:02:07;6.47;;;1.45;;
73850;SDS011;62190;51.548;5.688;2023-04-12T01:04:38;9.08;;;1.75;;
73850;SDS011;62190;51.548;5.688;2023-04-12T01:13:42;8.08;;;1.75;;
73850;SDS011;62190;51.548;5.688;2023-04-12T01:15:25;5.95;;;1.72;;
73850;SDS011;62190;51.548;5.688;2023-04-12T01:18:13;8.75;;;2.02;;
73850;SDS011;62190;51.548;5.688;2023-04-12T01:20:48;7.95;;;1.92;;
73850;SDS011;62190;51.548;5.688;2023-04-12T01:23:21;11.57;;;2.12;;
73850;SDS011;62190;51.548;5.688;2023-04-12T01:26:00;10.43;;;2.17;;
73850;SDS011;62190;51.548;5.688;2023-04-12T01:28:34;7.25;;;2.20;;
73850;SDS011;62190;51.548;5.688;2023-04-12T01:31:06;6.87;;;1.77;;
73850;SDS011;62190;51.548;5.688;2023-04-12T01:33:37;7.58;;;1.72;;
73850;SDS011;62190;51.548;5.688;2023-04-12T01:36:09;8.63;;;2.12;;
73850;SDS011;62190;51.548;5.688;2023-04-12T01:38:39;5.28;;;2.10;;
73850;SDS011;62190;51.548;5.688;2023-04-12T01:41:07;7.78;;;1.72;;
73850;SDS011;62190;51.548;5.688;2023-04-12T01:43:41;5.83;;;2.98;;
73850;SDS011;62190;51.548;5.688;2023-04-12T01:46:12;10.32;;;1.72;;
73850;SDS011;62190;51.548;5.688;2023-04-12T01:48:44;4.78;;;1.82;;
73850;SDS011;62190;51.548;5.688;2023-04-12T01:51:18;6.45;;;1.70;;
73850;SDS011;62190;51.548;5.688;2023-04-12T01:54:02;6.85;;;1.52;;
73850;SDS011;62190;51.548;5.688;2023-04-12T01:56:37;14.87;;;1.70;;
73850;SDS011;62190;51.548;5.688;2023-04-12T01:59:08;5.55;;;2.50;;
73850;SDS011;62190;51.548;5.688;2023-04-12T02:01:36;6.40;;;1.47;;
73850;SDS011;62190;51.548;5.688;2023-04-12T02:04:05;9.43;;;2.47;;
73850;SDS011;62190;51.548;5.688;2023-04-12T02:06:33;8.95;;;2.20;;
73850;SDS011;62190;51.548;5.688;2023-04-12T02:09:03;7.67;;;1.55;;
73850;SDS011;62190;51.548;5.688;2023-04-12T02:11:34;3.42;;;1.27;;
73850;SDS011;62190;51.548;5.688;2023-04-12T02:14:02;3.27;;;1.60;;
73850;SDS011;62190;51.548;5.688;2023-04-12T02:16:30;5.78;;;1.80;;
73850;SDS011;62190;51.548;5.688;2023-04-12T02:18:59;7.33;;;1.70;;
73850;SDS011;62190;51.548;5.688;2023-04-12T02:21:38;5.33;;;1.80;;
73850;SDS011;62190;51.548;5.688;2023-04-12T02:24:01;6.30;;;1.57;;
73850;SDS011;62190;51.548;5.688;2023-04-12T02:26:31;5.33;;;1.77;;
73850;SDS011;62190;51.548;5.688;2023-04-12T02:28:59;6.83;;;2.00;;
73850;SDS011;62190;51.548;5.688;2023-04-12T02:31:27;4.60;;;1.40;;
73850;SDS011;62190;51.548;5.688;2023-04-12T02:33:56;5.08;;;1.67;;
73850;SDS011;62190;51.548;5.688;2023-04-12T02:36:23;3.37;;;1.65;;
73850;SDS011;62190;51.548;5.688;2023-04-12T02:38:52;3.37;;;1.42;;
73850;SDS011;62190;51.548;5.688;2023-04-12T02:41:21;5.25;;;2.10;;
73850;SDS011;62190;51.548;5.688;2023-04-12T02:43:50;5.37;;;1.32;;
73850;SDS011;62190;51.548;5.688;2023-04-12T02:46:24;5.72;;;1.20;;
73850;SDS011;62190;51.548;5.688;2023-04-12T02:48:57;7.55;;;1.30;;
73850;SDS011;62190;51.548;5.688;2023-04-12T02:51:24;4.33;;;1.60;;
73850;SDS011;62190;51.548;5.688;2023-04-12T02:53:52;4.87;;;1.30;;
73850;SDS011;62190;51.548;5.688;2023-04-12T02:56:22;7.35;;;1.62;;
73850;SDS011;62190;51.548;5.688;2023-04-12T02:58:50;5.90;;;1.37;;
73850;SDS011;62190;51.548;5.688;2023-04-12T03:01:19;4.45;;;1.12;;
73850;SDS011;62190;51.548;5.688;2023-04-12T03:03:50;2.35;;;1.10;;
73850;SDS011;62190;51.548;5.688;2023-04-12T03:06:18;5.15;;;1.50;;
73850;SDS011;62190;51.548;5.688;2023-04-12T03:08:47;5.95;;;1.42;;
73850;SDS011;62190;51.548;5.688;2023-04-12T03:11:18;3.40;;;1.00;;
73850;SDS011;62190;51.548;5.688;2023-04-12T03:13:45;6.00;;;1.55;;
73850;SDS011;62190;51.548;5.688;2023-04-12T03:16:24;4.47;;;1.20;;
73850;SDS011;62190;51.548;5.688;2023-04-12T03:18:48;5.42;;;1.35;;
73850;SDS011;62190;51.548;5.688;2023-04-12T03:21:16;4.45;;;1.32;;
73850;SDS011;62190;51.548;5.688;2023-04-12T03:23:43;5.08;;;1.42;;
73850;SDS011;62190;51.548;5.688;2023-04-12T03:26:11;5.78;;;1.50;;
73850;SDS011;62190;51.548;5.688;2023-04-12T03:28:39;2.98;;;1.30;;
73850;SDS011;62190;51.548;5.688;2023-04-12T03:31:07;4.78;;;1.55;;
73850;SDS011;62190;51.548;5.688;2023-04-12T03:33:35;5.12;;;1.50;;
73850;SDS011;62190;51.548;5.688;2023-04-12T03:36:04;6.75;;;1.37;;
73850;SDS011;62190;51.548;5.688;2023-04-12T03:38:31;5.78;;;1.20;;
73850;SDS011;62190;51.548;5.688;2023-04-12T03:40:59;5.83;;;1.70;;
73850;SDS011;62190;51.548;5.688;2023-04-12T03:43:28;5.83;;;1.65;;
73850;SDS011;62190;51.548;5.688;2023-04-12T03:45:58;4.60;;;1.45;;
73850;SDS011;62190;51.548;5.688;2023-04-12T03:48:25;4.17;;;1.47;;
73850;SDS011;62190;51.548;5.688;2023-04-12T03:50:52;5.08;;;1.30;;
73850;SDS011;62190;51.548;5.688;2023-04-12T03:53:20;3.75;;;1.30;;
73850;SDS011;62190;51.548;5.688;2023-04-12T03:55:48;5.30;;;1.30;;
73850;SDS011;62190;51.548;5.688;2023-04-12T03:58:15;4.45;;;1.75;;
73850;SDS011;62190;51.548;5.688;2023-04-12T04:00:44;4.28;;;1.50;;
73850;SDS011;62190;51.548;5.688;2023-04-12T04:03:13;6.95;;;1.72;;
73850;SDS011;62190;51.548;5.688;2023-04-12T04:05:42;3.77;;;1.17;;
73850;SDS011;62190;51.548;5.688;2023-04-12T04:08:11;7.60;;;1.80;;
73850;SDS011;62190;51.548;5.688;2023-04-12T04:10:42;4.78;;;1.40;;
73850;SDS011;62190;51.548;5.688;2023-04-12T04:13:09;4.30;;;1.85;;
73850;SDS011;62190;51.548;5.688;2023-04-12T04:15:36;5.10;;;1.37;;
73850;SDS011;62190;51.548;5.688;2023-04-12T04:18:04;3.80;;;1.62;;
73850;SDS011;62190;51.548;5.688;2023-04-12T04:20:31;3.08;;;1.30;;
73850;SDS011;62190;51.548;5.688;2023-04-12T04:23:00;5.58;;;1.42;;
73850;SDS011;62190;51.548;5.688;2023-04-12T04:25:29;5.35;;;1.35;;
73850;SDS011;62190;51.548;5.688;2023-04-12T04:27:58;5.12;;;1.62;;
73850;SDS011;62190;51.548;5.688;2023-04-12T04:30:27;4.62;;;1.52;;
73850;SDS011;62190;51.548;5.688;2023-04-12T04:32:56;5.22;;;1.30;;
73850;SDS011;62190;51.548;5.688;2023-04-12T04:35:24;5.47;;;1.85;;
73850;SDS011;62190;51.548;5.688;2023-04-12T04:37:51;4.97;;;1.87;;
73850;SDS011;62190;51.548;5.688;2023-04-12T04:40:19;4.95;;;1.85;;
73850;SDS011;62190;51.548;5.688;2023-04-12T04:42:49;6.80;;;1.57;;
73850;SDS011;62190;51.548;5.688;2023-04-12T04:45:26;6.17;;;1.25;;
73850;SDS011;62190;51.548;5.688;2023-04-12T04:47:57;4.72;;;1.90;;
73850;SDS011;62190;51.548;5.688;2023-04-12T04:50:24;4.65;;;1.60;;
73850;SDS011;62190;51.548;5.688;2023-04-12T04:52:54;5.55;;;1.65;;
73850;SDS011;62190;51.548;5.688;2023-04-12T04:55:21;4.42;;;1.70;;
73850;SDS011;62190;51.548;5.688;2023-04-12T04:57:52;6.40;;;1.55;;
73850;SDS011;62190;51.548;5.688;2023-04-12T05:00:22;3.85;;;1.75;;
73850;SDS011;62190;51.548;5.688;2023-04-12T05:02:51;3.67;;;1.60;;
73850;SDS011;62190;51.548;5.688;2023-04-12T05:05:19;5.12;;;2.33;;
73850;SDS011;62190;51.548;5.688;2023-04-12T05:07:48;7.12;;;1.70;;
73850;SDS011;62190;51.548;5.688;2023-04-12T05:10:16;3.75;;;2.27;;
73850;SDS011;62190;51.548;5.688;2023-04-12T05:12:44;5.03;;;2.15;;
73850;SDS011;62190;51.548;5.688;2023-04-12T05:15:14;7.58;;;1.65;;
73850;SDS011;62190;51.548;5.688;2023-04-12T05:17:47;5.45;;;2.12;;
73850;SDS011;62190;51.548;5.688;2023-04-12T05:20:14;5.00;;;1.80;;
73850;SDS011;62190;51.548;5.688;2023-04-12T05:22:45;5.05;;;1.92;;
73850;SDS011;62190;51.548;5.688;2023-04-12T05:25:14;6.08;;;2.40;;
73850;SDS011;62190;51.548;5.688;2023-04-12T05:27:44;9.28;;;2.30;;
73850;SDS011;62190;51.548;5.688;2023-04-12T05:30:14;3.45;;;1.77;;
73850;SDS011;62190;51.548;5.688;2023-04-12T05:32:43;6.65;;;2.47;;
73850;SDS011;62190;51.548;5.688;2023-04-12T05:35:12;6.97;;;2.27;;
73850;SDS011;62190;51.548;5.688;2023-04-12T05:37:39;5.22;;;2.25;;
73850;SDS011;62190;51.548;5.688;2023-04-12T05:40:06;5.10;;;1.70;;
73850;SDS011;62190;51.548;5.688;2023-04-12T05:42:34;8.03;;;2.20;;
73850;SDS011;62190;51.548;5.688;2023-04-12T05:45:04;4.72;;;2.00;;
73850;SDS011;62190;51.548;5.688;2023-04-12T05:47:35;5.40;;;2.55;;
73850;SDS011;62190;51.548;5.688;2023-04-12T05:50:05;7.03;;;2.20;;
73850;SDS011;62190;51.548;5.688;2023-04-12T05:52:35;6.25;;;1.98;;
73850;SDS011;62190;51.548;5.688;2023-04-12T05:55:04;6.40;;;1.95;;
73850;SDS011;62190;51.548;5.688;2023-04-12T05:57:33;6.95;;;1.98;;
73850;SDS011;62190;51.548;5.688;2023-04-12T06:00:03;5.62;;;2.05;;
73850;SDS011;62190;51.548;5.688;2023-04-12T06:02:44;7.65;;;1.98;;
73850;SDS011;62190;51.548;5.688;2023-04-12T06:05:12;4.28;;;2.12;;
73850;SDS011;62190;51.548;5.688;2023-04-12T06:07:42;8.70;;;3.27;;
73850;SDS011;62190;51.548;5.688;2023-04-12T06:10:13;6.45;;;2.30;;
73850;SDS011;62190;51.548;5.688;2023-04-12T06:12:42;7.22;;;2.60;;
73850;SDS011;62190;51.548;5.688;2023-04-12T06:15:09;4.72;;;2.27;;
73850;SDS011;62190;51.548;5.688;2023-04-12T06:17:36;5.80;;;2.50;;
73850;SDS011;62190;51.548;5.688;2023-04-12T06:20:04;4.50;;;2.25;;
73850;SDS011;62190;51.548;5.688;2023-04-12T06:22:35;5.40;;;2.15;;
73850;SDS011;62190;51.548;5.688;2023-04-12T06:25:02;4.72;;;2.55;;
73850;SDS011;62190;51.548;5.688;2023-04-12T06:27:30;5.50;;;2.65;;
73850;SDS011;62190;51.548;5.688;2023-04-12T06:29:57;7.47;;;2.87;;
73850;SDS011;62190;51.548;5.688;2023-04-12T06:32:25;6.58;;;3.05;;
73850;SDS011;62190;51.548;5.688;2023-04-12T06:34:53;5.95;;;2.70;;
73850;SDS011;62190;51.548;5.688;2023-04-12T06:37:20;5.05;;;2.72;;
73850;SDS011;62190;51.548;5.688;2023-04-12T06:39:48;7.12;;;2.77;;
73850;SDS011;62190;51.548;5.688;2023-04-12T06:42:15;7.03;;;3.00;;
73850;SDS011;62190;51.548;5.688;2023-04-12T06:44:43;7.12;;;2.83;;
73850;SDS011;62190;51.548;5.688;2023-04-12T06:47:10;5.80;;;2.80;;
73850;SDS011;62190;51.548;5.688;2023-04-12T06:49:37;9.45;;;4.87;;
73850;SDS011;62190;51.548;5.688;2023-04-12T06:52:05;5.12;;;2.92;;
73850;SDS011;62190;51.548;5.688;2023-04-12T06:54:34;7.87;;;2.65;;
73850;SDS011;62190;51.548;5.688;2023-04-12T06:57:10;4.20;;;2.70;;
73850;SDS011;62190;51.548;5.688;2023-04-12T06:59:37;6.53;;;2.77;;
73850;SDS011;62190;51.548;5.688;2023-04-12T07:02:04;6.60;;;2.65;;
73850;SDS011;62190;51.548;5.688;2023-04-12T07:04:32;4.58;;;2.95;;
73850;SDS011;62190;51.548;5.688;2023-04-12T07:06:59;4.35;;;2.98;;
73850;SDS011;62190;51.548;5.688;2023-04-12T07:09:29;4.17;;;2.50;;
73850;SDS011;62190;51.548;5.688;2023-04-12T07:11:59;7.67;;;3.08;;
73850;SDS011;62190;51.548;5.688;2023-04-12T07:14:27;4.30;;;2.22;;
73850;SDS011;62190;51.548;5.688;2023-04-12T07:16:54;5.15;;;3.05;;
73850;SDS011;62190;51.548;5.688;2023-04-12T07:19:22;7.80;;;3.27;;
73850;SDS011;62190;51.548;5.688;2023-04-12T07:21:49;5.50;;;2.72;;
73850;SDS011;62190;51.548;5.688;2023-04-12T07:24:16;5.30;;;2.58;;
73850;SDS011;62190;51.548;5.688;2023-04-12T07:26:43;6.42;;;2.25;;
73850;SDS011;62190;51.548;5.688;2023-04-12T07:29:11;4.47;;;2.62;;
73850;SDS011;62190;51.548;5.688;2023-04-12T07:31:38;6.72;;;2.70;;
73850;SDS011;62190;51.548;5.688;2023-04-12T07:34:05;4.12;;;2.33;;
73850;SDS011;62190;51.548;5.688;2023-04-12T07:36:33;5.22;;;2.87;;
73850;SDS011;62190;51.548;5.688;2023-04-12T07:39:00;4.97;;;3.30;;
73850;SDS011;62190;51.548;5.688;2023-04-12T07:41:27;6.12;;;3.12;;
73850;SDS011;62190;51.548;5.688;2023-04-12T07:43:54;4.05;;;2.62;;
73850;SDS011;62190;51.548;5.688;2023-04-12T07:46:22;6.35;;;2.52;;
73850;SDS011;62190;51.548;5.688;2023-04-12T07:48:50;6.53;;;2.47;;
73850;SDS011;62190;51.548;5.688;2023-04-12T07:51:17;4.12;;;2.05;;
73850;SDS011;62190;51.548;5.688;2023-04-12T07:53:44;7.45;;;2.67;;
73850;SDS011;62190;51.548;5.688;2023-04-12T07:56:13;6.78;;;2.47;;
73850;SDS011;62190;51.548;5.688;2023-04-12T07:58:40;5.62;;;3.02;;
73850;SDS011;62190;51.548;5.688;2023-04-12T08:01:09;8.80;;;3.40;;
73850;SDS011;62190;51.548;5.688;2023-04-12T08:03:38;3.90;;;2.35;;
73850;SDS011;62190;51.548;5.688;2023-04-12T08:06:05;7.20;;;2.37;;
73850;SDS011;62190;51.548;5.688;2023-04-12T08:08:33;4.90;;;2.42;;
73850;SDS011;62190;51.548;5.688;2023-04-12T08:11:00;6.30;;;2.83;;
73850;SDS011;62190;51.548;5.688;2023-04-12T08:13:29;9.98;;;3.80;;
73850;SDS011;62190;51.548;5.688;2023-04-12T08:15:56;7.92;;;3.85;;
73850;SDS011;62190;51.548;5.688;2023-04-12T08:18:24;7.70;;;3.37;;
73850;SDS011;62190;51.548;5.688;2023-04-12T08:20:52;8.88;;;4.62;;
73850;SDS011;62190;51.548;5.688;2023-04-12T08:23:21;8.00;;;3.70;;
73850;SDS011;62190;51.548;5.688;2023-04-12T08:25:49;6.47;;;3.33;;
73850;SDS011;62190;51.548;5.688;2023-04-12T08:28:16;6.92;;;3.02;;
73850;SDS011;62190;51.548;5.688;2023-04-12T08:30:43;7.95;;;3.30;;
73850;SDS011;62190;51.548;5.688;2023-04-12T08:33:11;8.45;;;3.33;;
73850;SDS011;62190;51.548;5.688;2023-04-12T08:35:38;8.63;;;3.22;;
73850;SDS011;62190;51.548;5.688;2023-04-12T08:38:05;6.87;;;3.30;;
73850;SDS011;62190;51.548;5.688;2023-04-12T08:40:33;5.85;;;2.58;;
73850;SDS011;62190;51.548;5.688;2023-04-12T08:43:00;9.18;;;3.30;;
73850;SDS011;62190;51.548;5.688;2023-04-12T08:45:28;8.78;;;2.55;;
73850;SDS011;62190;51.548;5.688;2023-04-12T08:47:56;7.42;;;3.00;;
73850;SDS011;62190;51.548;5.688;2023-04-12T08:50:25;5.33;;;2.85;;
73850;SDS011;62190;51.548;5.688;2023-04-12T08:52:54;8.93;;;2.50;;
73850;SDS011;62190;51.548;5.688;2023-04-12T08:55:21;7.05;;;2.58;;
73850;SDS011;62190;51.548;5.688;2023-04-12T08:57:50;7.72;;;2.55;;
73850;SDS011;62190;51.548;5.688;2023-04-12T09:00:23;6.95;;;3.02;;
73850;SDS011;62190;51.548;5.688;2023-04-12T09:02:52;9.03;;;3.40;;
73850;SDS011;62190;51.548;5.688;2023-04-12T09:05:19;10.70;;;4.12;;
73850;SDS011;62190;51.548;5.688;2023-04-12T09:07:48;8.85;;;2.98;;
73850;SDS011;62190;51.548;5.688;2023-04-12T09:10:34;8.30;;;2.40;;
73850;SDS011;62190;51.548;5.688;2023-04-12T09:13:01;7.55;;;2.02;;
73850;SDS011;62190;51.548;5.688;2023-04-12T09:15:29;8.05;;;2.25;;
73850;SDS011;62190;51.548;5.688;2023-04-12T09:18:06;6.42;;;1.80;;
73850;SDS011;62190;51.548;5.688;2023-04-12T09:20:36;5.50;;;1.55;;
73850;SDS011;62190;51.548;5.688;2023-04-12T09:23:17;8.30;;;1.75;;
73850;SDS011;62190;51.548;5.688;2023-04-12T09:25:46;8.93;;;2.08;;
73850;SDS011;62190;51.548;5.688;2023-04-12T09:28:25;7.58;;;2.42;;
73850;SDS011;62190;51.548;5.688;2023-04-12T09:30:54;8.80;;;2.40;;
73850;SDS011;62190;51.548;5.688;2023-04-12T09:33:35;7.80;;;2.17;;
73850;SDS011;62190;51.548;5.688;2023-04-12T09:36:04;8.10;;;1.80;;
73850;SDS011;62190;51.548;5.688;2023-04-12T09:38:34;8.85;;;2.30;;
73850;SDS011;62190;51.548;5.688;2023-04-12T09:41:14;8.08;;;1.82;;
73850;SDS011;62190;51.548;5.688;2023-04-12T09:43:43;6.28;;;2.02;;
73850;SDS011;62190;51.548;5.688;2023-04-12T09:46:12;5.28;;;1.95;;
73850;SDS011;62190;51.548;5.688;2023-04-12T09:48:47;11.00;;;2.75;;
73850;SDS011;62190;51.548;5.688;2023-04-12T09:51:31;11.60;;;2.77;;
73850;SDS011;62190;51.548;5.688;2023-04-12T09:54:00;9.15;;;3.00;;
73850;SDS011;62190;51.548;5.688;2023-04-12T09:56:29;7.00;;;2.92;;
73850;SDS011;62190;51.548;5.688;2023-04-12T09:59:03;10.78;;;3.52;;
73850;SDS011;62190;51.548;5.688;2023-04-12T10:01:29;9.63;;;3.33;;
73850;SDS011;62190;51.548;5.688;2023-04-12T10:04:00;11.22;;;3.75;;
73850;SDS011;62190;51.548;5.688;2023-04-12T10:06:29;16.10;;;4.28;;
73850;SDS011;62190;51.548;5.688;2023-04-12T10:09:00;9.03;;;3.45;;
73850;SDS011;62190;51.548;5.688;2023-04-12T10:11:31;9.93;;;3.60;;
73850;SDS011;62190;51.548;5.688;2023-04-12T10:14:03;11.60;;;4.05;;
73850;SDS011;62190;51.548;5.688;2023-04-12T10:16:29;8.85;;;3.20;;
73850;SDS011;62190;51.548;5.688;2023-04-12T10:19:01;11.60;;;3.80;;
73850;SDS011;62190;51.548;5.688;2023-04-12T10:21:29;11.43;;;3.55;;
73850;SDS011;62190;51.548;5.688;2023-04-12T10:23:57;9.45;;;3.20;;
73850;SDS011;62190;51.548;5.688;2023-04-12T10:26:24;9.90;;;3.45;;
73850;SDS011;62190;51.548;5.688;2023-04-12T10:31:51;11.60;;;3.20;;
73850;SDS011;62190;51.548;5.688;2023-04-12T10:34:23;10.10;;;3.80;;
73850;SDS011;62190;51.548;5.688;2023-04-12T10:36:55;11.60;;;4.08;;
73850;SDS011;62190;51.548;5.688;2023-04-12T10:39:34;13.53;;;4.80;;
73850;SDS011;62190;51.548;5.688;2023-04-12T10:44:52;13.32;;;4.53;;
73850;SDS011;62190;51.548;5.688;2023-04-12T10:50:22;15.23;;;2.98;;
73850;SDS011;62190;51.548;5.688;2023-04-12T10:55:43;13.43;;;3.98;;
73850;SDS011;62190;51.548;5.688;2023-04-12T10:58:10;15.90;;;3.95;;
73850;SDS011;62190;51.548;5.688;2023-04-12T11:03:26;11.50;;;3.33;;
73850;SDS011;62190;51.548;5.688;2023-04-12T11:05:57;12.40;;;3.27;;
73850;SDS011;62190;51.548;5.688;2023-04-12T11:08:29;11.65;;;2.65;;
73850;SDS011;62190;51.548;5.688;2023-04-12T11:11:01;12.70;;;2.42;;
73850;SDS011;62190;51.548;5.688;2023-04-12T11:13:35;12.35;;;2.42;;
73850;SDS011;62190;51.548;5.688;2023-04-12T11:16:04;12.37;;;3.42;;
73850;SDS011;62190;51.548;5.688;2023-04-12T11:18:32;10.35;;;2.27;;
73850;SDS011;62190;51.548;5.688;2023-04-12T11:21:03;9.65;;;2.00;;
73850;SDS011;62190;51.548;5.688;2023-04-12T11:23:31;8.33;;;1.90;;
73850;SDS011;62190;51.548;5.688;2023-04-12T11:26:01;14.87;;;3.20;;
73850;SDS011;62190;51.548;5.688;2023-04-12T11:28:29;13.98;;;5.00;;
73850;SDS011;62190;51.548;5.688;2023-04-12T11:30:56;11.12;;;4.22;;
73850;SDS011;62190;51.548;5.688;2023-04-12T11:33:31;10.48;;;4.20;;
73850;SDS011;62190;51.548;5.688;2023-04-12T11:36:02;15.72;;;6.08;;
73850;SDS011;62190;51.548;5.688;2023-04-12T11:38:32;17.32;;;6.00;;
73850;SDS011;62190;51.548;5.688;2023-04-12T11:41:02;14.83;;;5.72;;
73850;SDS011;62190;51.548;5.688;2023-04-12T11:43:32;16.20;;;6.65;;
73850;SDS011;62190;51.548;5.688;2023-04-12T11:46:00;18.75;;;8.33;;
73850;SDS011;62190;51.548;5.688;2023-04-12T11:48:28;13.22;;;6.20;;
73850;SDS011;62190;51.548;5.688;2023-04-12T11:50:55;15.30;;;7.10;;
73850;SDS011;62190;51.548;5.688;2023-04-12T11:53:28;18.95;;;7.40;;
73850;SDS011;62190;51.548;5.688;2023-04-12T11:55:58;19.95;;;6.53;;
73850;SDS011;62190;51.548;5.688;2023-04-12T11:58:30;20.10;;;6.37;;
73850;SDS011;62190;51.548;5.688;2023-04-12T12:01:02;18.55;;;6.95;;
73850;SDS011;62190;51.548;5.688;2023-04-12T12:03:29;24.77;;;6.97;;
73850;SDS011;62190;51.548;5.688;2023-04-12T12:05:56;12.68;;;5.28;;
73850;SDS011;62190;51.548;5.688;2023-04-12T12:08:24;17.02;;;5.53;;
73850;SDS011;62190;51.548;5.688;2023-04-12T12:10:55;20.70;;;6.22;;
73850;SDS011;62190;51.548;5.688;2023-04-12T12:13:22;14.95;;;5.95;;
73850;SDS011;62190;51.548;5.688;2023-04-12T12:15:55;11.60;;;5.03;;
73850;SDS011;62190;51.548;5.688;2023-04-12T12:18:26;15.63;;;5.05;;
73850;SDS011;62190;51.548;5.688;2023-04-12T12:20:57;11.73;;;4.45;;
73850;SDS011;62190;51.548;5.688;2023-04-12T12:23:31;14.85;;;4.40;;
73850;SDS011;62190;51.548;5.688;2023-04-12T12:26:00;11.30;;;4.33;;
73850;SDS011;62190;51.548;5.688;2023-04-12T12:28:37;14.13;;;4.35;;
73850;SDS011;62190;51.548;5.688;2023-04-12T12:31:05;12.63;;;3.45;;
73850;SDS011;62190;51.548;5.688;2023-04-12T12:33:35;12.35;;;3.52;;
73850;SDS011;62190;51.548;5.688;2023-04-12T12:36:03;11.50;;;3.80;;
73850;SDS011;62190;51.548;5.688;2023-04-12T12:38:37;7.65;;;2.85;;
73850;SDS011;62190;51.548;5.688;2023-04-12T12:41:21;13.13;;;4.45;;
73850;SDS011;62190;51.548;5.688;2023-04-12T12:43:51;9.10;;;2.50;;
73850;SDS011;62190;51.548;5.688;2023-04-12T12:46:20;11.50;;;2.60;;
73850;SDS011;62190;51.548;5.688;2023-04-12T12:48:47;7.67;;;2.35;;
73850;SDS011;62190;51.548;5.688;2023-04-12T12:51:17;14.13;;;3.22;;
73850;SDS011;62190;51.548;5.688;2023-04-12T12:53:46;9.88;;;3.42;;
73850;SDS011;62190;51.548;5.688;2023-04-12T12:56:17;11.88;;;3.55;;
73850;SDS011;62190;51.548;5.688;2023-04-12T12:58:45;12.43;;;2.98;;
73850;SDS011;62190;51.548;5.688;2023-04-12T13:01:14;15.78;;;4.05;;
73850;SDS011;62190;51.548;5.688;2023-04-12T13:03:43;11.48;;;3.35;;
73850;SDS011;62190;51.548;5.688;2023-04-12T13:06:12;14.13;;;3.62;;
73850;SDS011;62190;51.548;5.688;2023-04-12T13:08:40;14.83;;;3.45;;
73850;SDS011;62190;51.548;5.688;2023-04-12T13:11:08;13.43;;;3.77;;
73850;SDS011;62190;51.548;5.688;2023-04-12T13:13:35;13.10;;;4.20;;
73850;SDS011;62190;51.548;5.688;2023-04-12T13:16:04;13.18;;;2.67;;
73850;SDS011;62190;51.548;5.688;2023-04-12T13:18:31;11.88;;;3.00;;
73850;SDS011;62190;51.548;5.688;2023-04-12T13:20:59;15.10;;;3.58;;
73850;SDS011;62190;51.548;5.688;2023-04-12T13:23:26;8.78;;;3.20;;
73850;SDS011;62190;51.548;5.688;2023-04-12T13:25:53;7.53;;;2.15;;
73850;SDS011;62190;51.548;5.688;2023-04-12T13:28:21;11.35;;;3.22;;
73850;SDS011;62190;51.548;5.688;2023-04-12T13:30:48;9.50;;;3.45;;
73850;SDS011;62190;51.548;5.688;2023-04-12T13:33:15;7.83;;;2.45;;
73850;SDS011;62190;51.548;5.688;2023-04-12T13:35:42;14.10;;;3.30;;
73850;SDS011;62190;51.548;5.688;2023-04-12T13:38:10;8.98;;;2.50;;
73850;SDS011;62190;51.548;5.688;2023-04-12T13:40:37;11.80;;;3.02;;
73850;SDS011;62190;51.548;5.688;2023-04-12T13:43:05;10.10;;;2.45;;
73850;SDS011;62190;51.548;5.688;2023-04-12T13:45:32;12.60;;;3.05;;
73850;SDS011;62190;51.548;5.688;2023-04-12T13:48:00;11.93;;;2.52;;
73850;SDS011;62190;51.548;5.688;2023-04-12T13:50:30;6.72;;;1.75;;
73850;SDS011;62190;51.548;5.688;2023-04-12T13:52:58;6.72;;;2.15;;
73850;SDS011;62190;51.548;5.688;2023-04-12T13:55:26;7.75;;;1.12;;
73850;SDS011;62190;51.548;5.688;2023-04-12T13:57:54;3.45;;;0.90;;
73850;SDS011;62190;51.548;5.688;2023-04-12T14:00:23;3.25;;;0.90;;
73850;SDS011;62190;51.548;5.688;2023-04-12T14:02:53;4.00;;;1.12;;
73850;SDS011;62190;51.548;5.688;2023-04-12T14:05:20;5.78;;;1.30;;
73850;SDS011;62190;51.548;5.688;2023-04-12T14:07:47;5.20;;;1.20;;
73850;SDS011;62190;51.548;5.688;2023-04-12T14:10:16;5.22;;;1.00;;
73850;SDS011;62190;51.548;5.688;2023-04-12T14:12:44;4.80;;;1.22;;
73850;SDS011;62190;51.548;5.688;2023-04-12T14:15:11;6.78;;;1.50;;
73850;SDS011;62190;51.548;5.688;2023-04-12T14:17:38;3.42;;;1.50;;
73850;SDS011;62190;51.548;5.688;2023-04-12T14:20:07;4.40;;;1.20;;
73850;SDS011;62190;51.548;5.688;2023-04-12T14:22:38;3.08;;;1.00;;
73850;SDS011;62190;51.548;5.688;2023-04-12T14:25:05;1.60;;;0.80;;
73850;SDS011;62190;51.548;5.688;2023-04-12T14:27:34;3.72;;;0.80;;
73850;SDS011;62190;51.548;5.688;2023-04-12T14:30:02;7.83;;;1.05;;
73850;SDS011;62190;51.548;5.688;2023-04-12T14:32:30;3.20;;;0.68;;
73850;SDS011;62190;51.548;5.688;2023-04-12T14:34:58;3.50;;;0.70;;
73850;SDS011;62190;51.548;5.688;2023-04-12T14:37:25;4.37;;;0.72;;
73850;SDS011;62190;51.548;5.688;2023-04-12T14:39:52;2.12;;;0.90;;
73850;SDS011;62190;51.548;5.688;2023-04-12T14:42:20;3.20;;;0.80;;
73850;SDS011;62190;51.548;5.688;2023-04-12T14:44:47;3.25;;;1.05;;
73850;SDS011;62190;51.548;5.688;2023-04-12T14:47:14;2.08;;;1.07;;
73850;SDS011;62190;51.548;5.688;2023-04-12T14:49:42;5.55;;;1.17;;
73850;SDS011;62190;51.548;5.688;2023-04-12T14:52:09;2.85;;;1.00;;
73850;SDS011;62190;51.548;5.688;2023-04-12T14:54:36;5.05;;;1.30;;
73850;SDS011;62190;51.548;5.688;2023-04-12T14:57:04;2.90;;;1.22;;
73850;SDS011;62190;51.548;5.688;2023-04-12T14:59:31;5.45;;;1.10;;
73850;SDS011;62190;51.548;5.688;2023-04-12T15:01:59;4.55;;;1.40;;
73850;SDS011;62190;51.548;5.688;2023-04-12T15:04:26;6.20;;;1.85;;
73850;SDS011;62190;51.548;5.688;2023-04-12T15:06:54;6.30;;;1.40;;
73850;SDS011;62190;51.548;5.688;2023-04-12T15:09:21;3.80;;;1.27;;
73850;SDS011;62190;51.548;5.688;2023-04-12T15:11:49;7.47;;;1.77;;
73850;SDS011;62190;51.548;5.688;2023-04-12T15:14:18;2.83;;;0.98;;
73850;SDS011;62190;51.548;5.688;2023-04-12T15:16:45;5.70;;;1.05;;